FranceFixed distance
Nice Côte d'Azur by UTMB - 50K
27 Sep2025
Distance
55km
Finishers
1,7301,377 men353 women
Winning time
4:28:45h
Median pace
6.08km/h
Pace distribution
1,730 finishers · 3.94–12.28 km/h · mean 6.24
Every finisher ran the same 55 km course, so these paces are directly comparable.
Histogram of finisher pace. 1,730 finishers ranged from 3.94 to 12.28 kilometres per hour, with a mean of 6.24 and a median of 6.08. The busiest band is 5.5 to 6.0 kilometres per hour, with 327 finishers.
Results
Ranks 651–700 of 1,730
| Rank | Runner | Time | Pace | Cat. | Placing |
|---|---|---|---|---|---|
| 651 | 8:32:10h | 6.44 | M23 | 582nd M · 290th M23 | |
| 652 | Uspa | 8:32:26h | 6.44 | M45 | 583rd M · 58th M45 |
| 653 | Antibes Triathlon | 8:32:29h | 6.44 | M23 | 584th M · 291st M23 |
| 654 | 8:32:42h | 6.44 | W23 | 70th F · 44th W23 | |
| 655 | 8:32:55h | 6.43 | M23 | 585th M · 292nd M23 | |
| 656 | 8:33:02h | 6.43 | W45 | 71st F · 4th W45 | |
| 657 | 8:33:23h | 6.43 | M40 | 586th M · 68th M40 | |
| 658 | 8:33:36h | 6.42 | M35 | 587th M · 104th M35 | |
| 658 | 8:33:36h | 6.42 | M35 | 587th M · 104th M35 | |
| 660 | 8:33:38h | 6.42 | W35 | 72nd F · 11th W35 | |
| 661 | Asptt Dijon Athlétisme | 8:33:53h | 6.42 | M35 | 589th M · 106th M35 |
| 662 | 8:33:56h | 6.42 | M23 | 590th M · 293rd M23 | |
| 663 | Escouade Arverne | 8:34:07h | 6.42 | W23 | 73rd F · 45th W23 |
| 664 | 8:34:45h | 6.41 | M23 | 591st M · 294th M23 | |
| 665 | 8:34:46h | 6.41 | M35 | 592nd M · 107th M35 | |
| 666 | US Roissy EN Brie | 8:34:49h | 6.41 | W35 | 74th F · 12th W35 |
| 667 | 8:34:50h | 6.41 | WU23 | 75th F · 4th WU23 | |
| 668 | 8:34:51h | 6.41 | M23 | 593rd M · 295th M23 | |
| 669 | 8:34:52h | 6.41 | M23 | 594th M · 296th M23 | |
| 670 | 8:34:54h | 6.41 | M40 | 595th M · 69th M40 | |
| 671 | 8:35:02h | 6.41 | M40 | 596th M · 70th M40 | |
| 672 | 8:35:03h | 6.41 | W35 | 76th F · 13th W35 | |
| 673 | 8:35:08h | 6.41 | M23 | 597th M · 297th M23 | |
| 674 | 8:35:11h | 6.41 | M23 | 598th M · 298th M23 | |
| 675 | 8:35:34h | 6.40 | M45 | 599th M · 59th M45 | |
| 676 | Mancioux | 8:35:43h | 6.40 | M40 | 600th M · 71st M40 |
| 677 | 8:35:51h | 6.40 | M23 | 601st M · 299th M23 | |
| 677 | 8:35:51h | 6.40 | M23 | 601st M · 299th M23 | |
| 679 | 8:35:53h | 6.40 | M23 | 603rd M · 301st M23 | |
| 680 | 8:35:55h | 6.40 | M23 | 604th M · 302nd M23 | |
| 681 | Metallo Sport Chantena... | 8:36:19h | 6.39 | M23 | 605th M · 303rd M23 |
| 682 | 8:36:33h | 6.39 | M23 | 606th M · 304th M23 | |
| 683 | 8:36:35h | 6.39 | M23 | 607th M · 305th M23 | |
| 683 | 8:36:35h | 6.39 | M23 | 607th M · 305th M23 | |
| 685 | 8:36:36h | 6.39 | M35 | 609th M · 108th M35 | |
| 686 | 8:36:38h | 6.39 | M23 | 610th M · 307th M23 | |
| 687 | 8:36:45h | 6.39 | M35 | 611th M · 109th M35 | |
| 688 | Unnormal Trail Assa | 8:36:48h | 6.38 | W40 | 77th F · 9th W40 |
| 689 | Town TO Trail / Ozon C... | 8:36:55h | 6.38 | W23 | 78th F · 46th W23 |
| 689 | Town TO Trail / Ozon C... | 8:36:55h | 6.38 | M23 | 612th M · 308th M23 |
| 691 | 8:37:02h | 6.38 | M45 | 613th M · 60th M45 | |
| 692 | 8:37:29h | 6.38 | M50 | 614th M · 21st M50 | |
| 693 | 8:37:31h | 6.38 | W23 | 79th F · 47th W23 | |
| 694 | 8:37:36h | 6.38 | M35 | 615th M · 110th M35 | |
| 695 | 8:37:40h | 6.38 | M23 | 616th M · 309th M23 | |
| 696 | 8:38:01h | 6.37 | M23 | 617th M · 310th M23 | |
| 697 | Cadence | 8:38:02h | 6.37 | M23 | 618th M · 311th M23 |
| 698 | 8:38:44h | 6.36 | M23 | 619th M · 312th M23 | |
| 699 | 8:38:51h | 6.36 | M23 | 620th M · 313th M23 | |
| 700 | 8:39:03h | 6.36 | M40 | 621st M · 72nd M40 |
- 651582nd M · 290th M23Time8:32:10hPace6.44Cat.M23
- 652Uspa583rd M · 58th M45Time8:32:26hPace6.44Cat.M45
- 653Antibes Triathlon584th M · 291st M23Time8:32:29hPace6.44Cat.M23
- 65470th F · 44th W23Time8:32:42hPace6.44Cat.W23
- 655585th M · 292nd M23Time8:32:55hPace6.43Cat.M23
- 65671st F · 4th W45Time8:33:02hPace6.43Cat.W45
- 657586th M · 68th M40Time8:33:23hPace6.43Cat.M40
- 658587th M · 104th M35Time8:33:36hPace6.42Cat.M35
- 658587th M · 104th M35Time8:33:36hPace6.42Cat.M35
- 66072nd F · 11th W35Time8:33:38hPace6.42Cat.W35
- 661Asptt Dijon Athlétisme589th M · 106th M35Time8:33:53hPace6.42Cat.M35
- 662590th M · 293rd M23Time8:33:56hPace6.42Cat.M23
- 663Escouade Arverne73rd F · 45th W23Time8:34:07hPace6.42Cat.W23
- 664591st M · 294th M23Time8:34:45hPace6.41Cat.M23
- 665592nd M · 107th M35Time8:34:46hPace6.41Cat.M35
- 666US Roissy EN Brie74th F · 12th W35Time8:34:49hPace6.41Cat.W35
- 66775th F · 4th WU23Time8:34:50hPace6.41Cat.WU23
- 668593rd M · 295th M23Time8:34:51hPace6.41Cat.M23
- 669594th M · 296th M23Time8:34:52hPace6.41Cat.M23
- 670595th M · 69th M40Time8:34:54hPace6.41Cat.M40
- 671596th M · 70th M40Time8:35:02hPace6.41Cat.M40
- 67276th F · 13th W35Time8:35:03hPace6.41Cat.W35
- 673597th M · 297th M23Time8:35:08hPace6.41Cat.M23
- 674598th M · 298th M23Time8:35:11hPace6.41Cat.M23
- 675599th M · 59th M45Time8:35:34hPace6.40Cat.M45
- 676Mancioux600th M · 71st M40Time8:35:43hPace6.40Cat.M40
- 677601st M · 299th M23Time8:35:51hPace6.40Cat.M23
- 677601st M · 299th M23Time8:35:51hPace6.40Cat.M23
- 679603rd M · 301st M23Time8:35:53hPace6.40Cat.M23
- 680604th M · 302nd M23Time8:35:55hPace6.40Cat.M23
- 681Metallo Sport Chantena...605th M · 303rd M23Time8:36:19hPace6.39Cat.M23
- 682606th M · 304th M23Time8:36:33hPace6.39Cat.M23
- 683607th M · 305th M23Time8:36:35hPace6.39Cat.M23
- 683607th M · 305th M23Time8:36:35hPace6.39Cat.M23
- 685609th M · 108th M35Time8:36:36hPace6.39Cat.M35
- 686610th M · 307th M23Time8:36:38hPace6.39Cat.M23
- 687611th M · 109th M35Time8:36:45hPace6.39Cat.M35
- 688Unnormal Trail Assa77th F · 9th W40Time8:36:48hPace6.38Cat.W40
- 689Town TO Trail / Ozon C...78th F · 46th W23Time8:36:55hPace6.38Cat.W23
- 689Town TO Trail / Ozon C...612th M · 308th M23Time8:36:55hPace6.38Cat.M23
- 691613th M · 60th M45Time8:37:02hPace6.38Cat.M45
- 692614th M · 21st M50Time8:37:29hPace6.38Cat.M50
- 69379th F · 47th W23Time8:37:31hPace6.38Cat.W23
- 694615th M · 110th M35Time8:37:36hPace6.38Cat.M35
- 695616th M · 309th M23Time8:37:40hPace6.38Cat.M23
- 696617th M · 310th M23Time8:38:01hPace6.37Cat.M23
- 697Cadence618th M · 311th M23Time8:38:02hPace6.37Cat.M23
- 698619th M · 312th M23Time8:38:44hPace6.36Cat.M23
- 699620th M · 313th M23Time8:38:51hPace6.36Cat.M23
- 700621st M · 72nd M40Time8:39:03hPace6.36Cat.M40
Showing ranks 651–700 of 1,730